sensor_id;sensor_type;location;lat;lon;timestamp;P1;durP1;ratioP1;P2;durP2;ratioP2
10142;SDS011;5112;54.088;13.446;2023-04-25T00:02:13;3.90;;;3.60;;
10142;SDS011;5112;54.088;13.446;2023-04-25T00:12:16;4.70;;;4.30;;
10142;SDS011;5112;54.088;13.446;2023-04-25T00:22:18;5.17;;;4.67;;
10142;SDS011;5112;54.088;13.446;2023-04-25T00:32:21;4.40;;;4.00;;
10142;SDS011;5112;54.088;13.446;2023-04-25T00:42:22;4.83;;;4.13;;
10142;SDS011;5112;54.088;13.446;2023-04-25T00:52:27;3.90;;;3.60;;
10142;SDS011;5112;54.088;13.446;2023-04-25T01:02:28;4.47;;;3.93;;
10142;SDS011;5112;54.088;13.446;2023-04-25T01:12:32;5.70;;;4.10;;
10142;SDS011;5112;54.088;13.446;2023-04-25T01:22:35;6.47;;;4.07;;
10142;SDS011;5112;54.088;13.446;2023-04-25T01:32:38;6.73;;;4.50;;
10142;SDS011;5112;54.088;13.446;2023-04-25T01:42:42;4.70;;;4.00;;
10142;SDS011;5112;54.088;13.446;2023-04-25T01:52:44;4.33;;;3.93;;
10142;SDS011;5112;54.088;13.446;2023-04-25T02:02:47;4.90;;;4.40;;
10142;SDS011;5112;54.088;13.446;2023-04-25T02:12:50;4.47;;;4.07;;
10142;SDS011;5112;54.088;13.446;2023-04-25T02:22:53;5.60;;;4.90;;
10142;SDS011;5112;54.088;13.446;2023-04-25T02:32:55;6.13;;;4.93;;
10142;SDS011;5112;54.088;13.446;2023-04-25T02:42:58;5.37;;;4.83;;
10142;SDS011;5112;54.088;13.446;2023-04-25T02:53:00;6.97;;;5.73;;
10142;SDS011;5112;54.088;13.446;2023-04-25T03:03:03;6.07;;;5.47;;
10142;SDS011;5112;54.088;13.446;2023-04-25T03:13:04;7.97;;;5.13;;
10142;SDS011;5112;54.088;13.446;2023-04-25T03:23:07;6.47;;;4.73;;
10142;SDS011;5112;54.088;13.446;2023-04-25T03:33:09;8.00;;;4.90;;
10142;SDS011;5112;54.088;13.446;2023-04-25T03:43:12;6.27;;;4.90;;
10142;SDS011;5112;54.088;13.446;2023-04-25T03:53:14;5.57;;;4.10;;
10142;SDS011;5112;54.088;13.446;2023-04-25T04:03:17;4.93;;;4.03;;
10142;SDS011;5112;54.088;13.446;2023-04-25T04:13:20;7.10;;;3.80;;
10142;SDS011;5112;54.088;13.446;2023-04-25T04:23:23;4.47;;;4.07;;
10142;SDS011;5112;54.088;13.446;2023-04-25T04:33:27;5.63;;;4.13;;
10142;SDS011;5112;54.088;13.446;2023-04-25T04:43:30;7.50;;;4.87;;
10142;SDS011;5112;54.088;13.446;2023-04-25T04:53:33;8.13;;;5.17;;
10142;SDS011;5112;54.088;13.446;2023-04-25T05:03:36;6.37;;;3.90;;
10142;SDS011;5112;54.088;13.446;2023-04-25T05:13:37;7.23;;;3.80;;
10142;SDS011;5112;54.088;13.446;2023-04-25T05:23:40;7.00;;;3.93;;
10142;SDS011;5112;54.088;13.446;2023-04-25T05:33:42;10.90;;;3.87;;
10142;SDS011;5112;54.088;13.446;2023-04-25T05:43:45;11.27;;;3.30;;
10142;SDS011;5112;54.088;13.446;2023-04-25T05:53:49;6.97;;;3.30;;
10142;SDS011;5112;54.088;13.446;2023-04-25T06:03:52;9.77;;;4.63;;
10142;SDS011;5112;54.088;13.446;2023-04-25T06:13:54;9.57;;;4.20;;
10142;SDS011;5112;54.088;13.446;2023-04-25T06:23:57;10.87;;;3.43;;
10142;SDS011;5112;54.088;13.446;2023-04-25T06:33:58;12.10;;;3.83;;
10142;SDS011;5112;54.088;13.446;2023-04-25T06:44:01;8.20;;;3.30;;
10142;SDS011;5112;54.088;13.446;2023-04-25T06:54:03;8.87;;;3.50;;
10142;SDS011;5112;54.088;13.446;2023-04-25T07:04:06;8.77;;;3.43;;
10142;SDS011;5112;54.088;13.446;2023-04-25T07:14:08;7.73;;;3.23;;
10142;SDS011;5112;54.088;13.446;2023-04-25T07:24:11;6.83;;;3.07;;
10142;SDS011;5112;54.088;13.446;2023-04-25T07:34:13;9.33;;;3.50;;
10142;SDS011;5112;54.088;13.446;2023-04-25T07:44:16;11.03;;;3.80;;
10142;SDS011;5112;54.088;13.446;2023-04-25T07:54:17;12.37;;;3.60;;
10142;SDS011;5112;54.088;13.446;2023-04-25T08:04:20;7.63;;;3.33;;
10142;SDS011;5112;54.088;13.446;2023-04-25T08:14:22;8.10;;;3.40;;
10142;SDS011;5112;54.088;13.446;2023-04-25T08:24:25;6.73;;;3.33;;
10142;SDS011;5112;54.088;13.446;2023-04-25T08:34:27;7.63;;;3.13;;
10142;SDS011;5112;54.088;13.446;2023-04-25T08:44:30;11.90;;;3.83;;
10142;SDS011;5112;54.088;13.446;2023-04-25T08:54:33;17.93;;;5.33;;
10142;SDS011;5112;54.088;13.446;2023-04-25T09:04:37;12.27;;;3.57;;
10142;SDS011;5112;54.088;13.446;2023-04-25T09:14:38;11.83;;;3.20;;
10142;SDS011;5112;54.088;13.446;2023-04-25T09:24:44;9.73;;;3.73;;
10142;SDS011;5112;54.088;13.446;2023-04-25T09:34:47;8.77;;;2.90;;
10142;SDS011;5112;54.088;13.446;2023-04-25T09:44:52;5.10;;;2.80;;
10142;SDS011;5112;54.088;13.446;2023-04-25T09:54:54;8.43;;;3.47;;
10142;SDS011;5112;54.088;13.446;2023-04-25T10:04:57;7.23;;;2.60;;
10142;SDS011;5112;54.088;13.446;2023-04-25T10:15:01;9.17;;;3.17;;
10142;SDS011;5112;54.088;13.446;2023-04-25T10:25:06;7.83;;;3.07;;
10142;SDS011;5112;54.088;13.446;2023-04-25T10:35:10;7.67;;;3.37;;
10142;SDS011;5112;54.088;13.446;2023-04-25T10:45:14;7.03;;;3.10;;
10142;SDS011;5112;54.088;13.446;2023-04-25T10:55:16;9.40;;;2.63;;
10142;SDS011;5112;54.088;13.446;2023-04-25T11:05:22;6.67;;;2.70;;
10142;SDS011;5112;54.088;13.446;2023-04-25T11:15:29;7.00;;;2.73;;
10142;SDS011;5112;54.088;13.446;2023-04-25T11:25:32;7.37;;;2.40;;
10142;SDS011;5112;54.088;13.446;2023-04-25T11:35:34;8.47;;;3.30;;
10142;SDS011;5112;54.088;13.446;2023-04-25T11:45:37;7.47;;;2.80;;
10142;SDS011;5112;54.088;13.446;2023-04-25T11:55:39;5.83;;;3.27;;
10142;SDS011;5112;54.088;13.446;2023-04-25T12:05:42;6.97;;;2.47;;
10142;SDS011;5112;54.088;13.446;2023-04-25T12:15:46;8.87;;;2.63;;
10142;SDS011;5112;54.088;13.446;2023-04-25T12:25:50;9.10;;;2.90;;
10142;SDS011;5112;54.088;13.446;2023-04-25T12:35:52;9.80;;;2.83;;
10142;SDS011;5112;54.088;13.446;2023-04-25T12:45:55;7.30;;;2.93;;
10142;SDS011;5112;54.088;13.446;2023-04-25T12:55:57;6.60;;;2.60;;
10142;SDS011;5112;54.088;13.446;2023-04-25T13:06:00;4.50;;;2.13;;
10142;SDS011;5112;54.088;13.446;2023-04-25T13:16:02;6.73;;;2.93;;
10142;SDS011;5112;54.088;13.446;2023-04-25T13:26:05;7.20;;;2.60;;
10142;SDS011;5112;54.088;13.446;2023-04-25T13:36:07;8.37;;;3.40;;
10142;SDS011;5112;54.088;13.446;2023-04-25T13:46:10;11.57;;;2.87;;
10142;SDS011;5112;54.088;13.446;2023-04-25T13:56:13;7.73;;;2.97;;
10142;SDS011;5112;54.088;13.446;2023-04-25T14:06:16;5.90;;;2.27;;
10142;SDS011;5112;54.088;13.446;2023-04-25T14:16:22;9.50;;;2.40;;
10142;SDS011;5112;54.088;13.446;2023-04-25T14:26:25;6.27;;;2.33;;
10142;SDS011;5112;54.088;13.446;2023-04-25T14:36:27;6.47;;;2.50;;
10142;SDS011;5112;54.088;13.446;2023-04-25T14:46:32;6.20;;;2.33;;
10142;SDS011;5112;54.088;13.446;2023-04-25T14:56:33;5.43;;;2.30;;
10142;SDS011;5112;54.088;13.446;2023-04-25T15:06:36;11.67;;;2.90;;
10142;SDS011;5112;54.088;13.446;2023-04-25T15:16:38;7.67;;;2.70;;
10142;SDS011;5112;54.088;13.446;2023-04-25T15:26:41;4.43;;;1.70;;
10142;SDS011;5112;54.088;13.446;2023-04-25T15:36:43;4.40;;;2.00;;
10142;SDS011;5112;54.088;13.446;2023-04-25T15:46:46;4.23;;;2.07;;
10142;SDS011;5112;54.088;13.446;2023-04-25T15:56:48;4.17;;;2.17;;
10142;SDS011;5112;54.088;13.446;2023-04-25T16:06:51;5.80;;;2.20;;
10142;SDS011;5112;54.088;13.446;2023-04-25T16:16:53;6.27;;;2.10;;
10142;SDS011;5112;54.088;13.446;2023-04-25T16:26:56;3.97;;;2.10;;
10142;SDS011;5112;54.088;13.446;2023-04-25T16:36:58;9.77;;;2.90;;
10142;SDS011;5112;54.088;13.446;2023-04-25T16:47:01;7.47;;;2.47;;
10142;SDS011;5112;54.088;13.446;2023-04-25T16:57:04;8.47;;;2.33;;
10142;SDS011;5112;54.088;13.446;2023-04-25T17:07:10;7.07;;;2.73;;
10142;SDS011;5112;54.088;13.446;2023-04-25T17:17:12;8.37;;;2.90;;
10142;SDS011;5112;54.088;13.446;2023-04-25T17:27:15;7.47;;;2.80;;
10142;SDS011;5112;54.088;13.446;2023-04-25T17:37:17;8.50;;;3.23;;
10142;SDS011;5112;54.088;13.446;2023-04-25T17:47:20;6.03;;;2.40;;
10142;SDS011;5112;54.088;13.446;2023-04-25T17:57:21;7.83;;;2.43;;
10142;SDS011;5112;54.088;13.446;2023-04-25T18:07:25;4.93;;;2.20;;
10142;SDS011;5112;54.088;13.446;2023-04-25T18:17:27;7.80;;;2.50;;
10142;SDS011;5112;54.088;13.446;2023-04-25T18:27:30;4.77;;;2.33;;
10142;SDS011;5112;54.088;13.446;2023-04-25T18:37:31;8.33;;;2.40;;
10142;SDS011;5112;54.088;13.446;2023-04-25T18:47:34;7.03;;;3.00;;
10142;SDS011;5112;54.088;13.446;2023-04-25T18:57:36;8.10;;;3.10;;
10142;SDS011;5112;54.088;13.446;2023-04-25T19:07:39;8.60;;;2.90;;
10142;SDS011;5112;54.088;13.446;2023-04-25T19:17:43;7.23;;;2.97;;
10142;SDS011;5112;54.088;13.446;2023-04-25T19:27:47;8.10;;;2.87;;
10142;SDS011;5112;54.088;13.446;2023-04-25T19:37:48;9.03;;;3.30;;
10142;SDS011;5112;54.088;13.446;2023-04-25T19:47:52;7.87;;;3.33;;
10142;SDS011;5112;54.088;13.446;2023-04-25T19:57:54;10.02;;;3.25;;
10142;SDS011;5112;54.088;13.446;2023-04-25T20:07:57;7.43;;;2.90;;
10142;SDS011;5112;54.088;13.446;2023-04-25T20:17:58;8.87;;;3.43;;
10142;SDS011;5112;54.088;13.446;2023-04-25T20:28:01;11.03;;;3.10;;
10142;SDS011;5112;54.088;13.446;2023-04-25T20:38:03;6.97;;;3.00;;
10142;SDS011;5112;54.088;13.446;2023-04-25T20:48:06;7.97;;;2.92;;
10142;SDS011;5112;54.088;13.446;2023-04-25T20:58:08;7.40;;;2.83;;
10142;SDS011;5112;54.088;13.446;2023-04-25T21:08:11;7.57;;;2.90;;
10142;SDS011;5112;54.088;13.446;2023-04-25T21:18:13;5.97;;;2.73;;
10142;SDS011;5112;54.088;13.446;2023-04-25T21:28:16;6.53;;;3.00;;
10142;SDS011;5112;54.088;13.446;2023-04-25T21:38:18;10.82;;;2.70;;
10142;SDS011;5112;54.088;13.446;2023-04-25T21:48:21;5.70;;;2.43;;
10142;SDS011;5112;54.088;13.446;2023-04-25T21:58:22;8.93;;;2.50;;
10142;SDS011;5112;54.088;13.446;2023-04-25T22:08:25;7.20;;;2.80;;
10142;SDS011;5112;54.088;13.446;2023-04-25T22:18:27;5.90;;;2.70;;
10142;SDS011;5112;54.088;13.446;2023-04-25T22:28:30;6.23;;;2.40;;
10142;SDS011;5112;54.088;13.446;2023-04-25T22:38:32;6.40;;;2.73;;
10142;SDS011;5112;54.088;13.446;2023-04-25T22:48:36;4.93;;;2.13;;
10142;SDS011;5112;54.088;13.446;2023-04-25T22:58:37;5.78;;;2.63;;
10142;SDS011;5112;54.088;13.446;2023-04-25T23:08:41;8.10;;;2.40;;
10142;SDS011;5112;54.088;13.446;2023-04-25T23:18:42;7.17;;;2.83;;
10142;SDS011;5112;54.088;13.446;2023-04-25T23:28:46;7.67;;;2.70;;
10142;SDS011;5112;54.088;13.446;2023-04-25T23:38:47;6.80;;;2.67;;
10142;SDS011;5112;54.088;13.446;2023-04-25T23:48:50;8.07;;;2.93;;
10142;SDS011;5112;54.088;13.446;2023-04-25T23:58:52;4.90;;;1.83;;
